Latest Weather Observations for Kyabram

IDV60801

Issued at 3:52 pm EST Wednesday 20 June 2018 (issued every 10 minutes, with the page automatically refreshed every 10 minutes)

About weather observations | Map of weather stations | Latest weather observations for VIC | Other Formats
Station Details ID: 080091 Name: KYABRAM Lat: -36.34 Lon: 145.06 Height: 105.0 m
Data from the previous 72 hours. | See also: Recent months at Kyabram
Date/Time
EST
Temp
°C
App
Temp
°C
Dew
Point
°C
Rel
Hum
%
Delta-T
°C
Wind Press
QNH
hPa
Press
MSL
hPa
Rain since
9am
mm
Dir  Spd
km/h
Gust
km/h
Spd
kts
Gust
kts
20/03:30pm 12.2 11.3 6.0 66 2.9 CALM 0 6 0 3 - - 0.0
20/03:00pm 12.7 10.4 5.6 62 3.3 N 7 13 4 7 - - 0.0
20/02:30pm 12.9 11.6 6.0 63 3.3 N 2 11 1 6 - - 0.0
20/02:00pm 12.8 10.0 6.8 67 2.9 NNW 11 15 6 8 - - 0.0
20/01:30pm 12.7 11.5 6.5 66 3.0 NNE 2 13 1 7 - - 0.0
20/01:00pm 12.6 10.2 7.1 69 2.7 NNE 9 13 5 7 - - 0.0
20/12:30pm 11.5 9.4 6.6 72 2.3 N 7 13 4 7 - - 0.0
20/12:00pm 10.7 7.8 6.6 76 1.9 N 11 17 6 9 - - 0.0
20/11:30am 10.5 8.5 7.0 79 1.7 N 7 11 4 6 - - 0.0
20/11:00am 9.8 9.2 7.2 84 1.2 CALM 0 0 0 0 - - 0.0
20/10:30am 8.6 8.0 7.2 91 0.7 CALM 0 0 0 0 - - 0.0
20/10:00am 7.5 5.8 7.4 99 0.0 ENE 6 9 3 5 - - 0.0
20/09:30am 4.9 3.8 4.9 100 0.0 CALM 0 0 0 0 - - 0.0
20/09:00am 3.5 2.1 3.4 99 0.0 CALM 0 0 0 0 - - 0.0
20/08:30am 2.1 0.4 2.0 99 0.0 CALM 0 0 0 0 - - 0.0
20/08:00am 0.9 -1.0 0.8 99 0.0 CALM 0 0 0 0 - - 0.0
20/07:30am 0.8 -1.1 0.7 99 0.0 CALM 0 0 0 0 - - 0.0
20/07:00am 0.6 -1.3 0.5 99 0.0 CALM 0 0 0 0 - - 0.0
20/06:30am 1.2 -0.6 1.1 99 0.0 CALM 0 0 0 0 - - 0.0
20/06:00am 1.6 -0.5 1.5 99 0.0 E 2 6 1 3 - - 0.0
20/05:30am 1.7 0.0 1.6 99 0.0 CALM 0 0 0 0 - - 0.0
20/05:00am 1.5 -0.3 1.4 99 0.0 CALM 0 0 0 0 - - 0.0
20/04:30am 1.3 -0.5 1.2 99 0.0 CALM 0 0 0 0 - - 0.0
20/04:00am 1.7 0.0 1.6 99 0.0 CALM 0 0 0 0 - - 0.0
20/03:30am 2.2 0.5 2.1 99 0.0 CALM 0 0 0 0 - - 0.0
20/03:00am 2.2 0.5 2.1 99 0.0 CALM 0 0 0 0 - - 0.0
20/02:30am 2.8 1.2 2.7 99 0.0 CALM 0 0 0 0 - - 0.0
20/02:00am 3.0 1.5 2.9 99 0.0 CALM 0 0 0 0 - - 0.0
20/01:30am 2.9 1.4 2.8 99 0.0 CALM 0 0 0 0 - - 0.0
20/01:00am 2.7 1.1 2.6 99 0.0 CALM 0 0 0 0 - - 0.0
20/12:30am 3.0 1.5 2.9 99 0.0 CALM 0 0 0 0 - - 0.0
20/12:00am 3.0 1.5 2.9 99 0.0 CALM 0 0 0 0 - - 0.0
 
Date/Time
EST
Temp
°C
App
Temp
°C
Dew
Point
°C
Rel
Hum
%
Delta-T
°C
Wind Press
QNH
hPa
Press
MSL
hPa
Rain since
9am
mm
Dir  Spd
km/h
Gust
km/h
Spd
kts
Gust
kts
19/11:30pm 3.5 2.1 3.4 99 0.0 CALM 0 0 0 0 - - 0.0
19/11:00pm 2.8 1.2 2.7 99 0.0 CALM 0 0 0 0 - - 0.0
19/10:30pm 3.1 1.6 3.0 99 0.0 CALM 0 0 0 0 - - 0.0
19/10:00pm 3.5 2.1 3.4 99 0.0 CALM 0 0 0 0 - - 0.0
19/09:30pm 3.7 2.3 3.6 99 0.0 CALM 0 0 0 0 - - 0.0
19/09:00pm 3.7 2.3 3.6 99 0.0 CALM 0 0 0 0 - - 0.0
19/08:30pm 4.0 2.7 3.9 99 0.0 CALM 0 0 0 0 - - 0.0
19/08:00pm 4.3 3.0 4.2 99 0.0 CALM 0 0 0 0 - - 0.0
19/07:30pm 4.7 3.4 4.1 96 0.3 CALM 0 0 0 0 - - 0.0
19/07:00pm 5.7 4.6 5.1 96 0.3 CALM 0 0 0 0 - - 0.0
19/06:30pm 6.0 4.9 5.0 93 0.4 CALM 0 0 0 0 - - 0.0
19/06:00pm 6.7 5.6 5.0 89 0.7 CALM 0 0 0 0 - - 0.0
19/05:30pm 8.1 6.9 4.7 79 1.5 CALM 0 0 0 0 - - 0.0
19/05:00pm 9.7 8.6 5.3 74 2.0 CALM 0 0 0 0 - - 0.0
19/04:30pm 12.4 11.3 5.3 62 3.3 CALM 0 0 0 0 - - 0.0
19/04:00pm 14.5 13.4 5.3 54 4.4 CALM 0 0 0 0 - - 0.0
19/03:30pm 13.7 12.4 4.3 53 4.3 CALM 0 0 0 0 - - 0.0
19/03:00pm 13.7 12.4 4.0 52 4.4 CALM 0 0 0 0 - - 0.0
19/02:30pm 13.0 11.4 4.7 57 3.8 NNE 2 9 1 5 - - 0.0
19/02:00pm 13.3 10.5 5.0 57 3.9 NNW 9 15 5 8 - - 0.0
19/01:30pm 13.1 10.2 4.5 56 4.0 N 9 13 5 7 - - 0.0
19/01:00pm 13.2 10.6 4.1 54 4.2 NNE 7 13 4 7 - - 0.0
19/12:30pm 12.9 9.9 4.1 55 4.0 ENE 9 15 5 8 - - 0.0
19/12:00pm 13.0 11.4 4.7 57 3.8 ENE 2 7 1 4 - - 0.0
19/11:30am 11.5 8.2 4.7 63 3.1 E 11 13 6 7 - - 0.0
19/11:00am 10.9 8.2 5.7 70 2.4 ESE 9 15 5 8 - - 0.0
19/10:30am 9.6 6.2 5.8 77 1.7 SE 13 19 7 10 - - 0.0
19/10:00am 8.1 4.5 5.0 81 1.4 SE 13 19 7 10 - - 0.0
19/09:30am 6.6 4.5 6.5 99 0.0 SSE 7 11 4 6 - - 0.0
19/09:00am 4.3 1.7 4.2 99 0.0 SSW 7 9 4 5 - - 0.0
19/08:30am 2.7 -0.6 2.6 99 0.0 SSW 9 9 5 5 - - 0.0
19/08:00am 1.1 -1.9 1.0 99 0.0 SSW 6 7 3 4 - - 0.0
19/07:30am 1.7 -1.7 1.6 99 0.0 SSW 9 11 5 6 - - 0.0
19/07:00am 0.9 -1.3 0.8 99 0.0 WSW 2 6 1 3 - - 0.0
19/06:30am 0.9 -2.3 0.8 99 0.0 SSW 7 9 4 5 - - 0.0
19/06:00am 1.2 -0.6 1.1 99 0.0 CALM 0 0 0 0 - - 0.0
19/05:30am 1.2 -0.6 1.1 99 0.0 CALM 0 0 0 0 - - 0.0
19/05:00am 1.3 -0.5 1.2 99 0.0 CALM 0 0 0 0 - - 0.0
19/04:30am 2.4 0.8 2.3 99 0.0 CALM 0 0 0 0 - - 0.0
19/04:00am 3.6 0.9 3.5 99 0.0 SSW 7 9 4 5 - - 0.0
19/03:30am 3.9 1.2 3.8 99 0.0 S 7 13 4 7 - - 0.0
19/03:00am 3.6 2.2 3.5 99 0.0 CALM 0 0 0 0 - - 0.0
19/02:30am 3.0 1.5 2.9 99 0.0 CALM 0 0 0 0 - - 0.0
19/02:00am 3.5 2.1 3.4 99 0.0 CALM 0 0 0 0 - - 0.0
19/01:30am 4.2 1.2 3.9 98 0.1 S 9 11 5 6 - - 0.0
19/01:00am 4.9 1.2 4.3 96 0.3 SSW 13 17 7 9 - - 0.0
19/12:30am 5.3 1.6 4.6 95 0.3 SSW 13 17 7 9 - - 0.0
19/12:00am 5.5 1.9 4.8 95 0.3 SSW 13 17 7 9 - - 0.0
 
Date/Time
EST
Temp
°C
App
Temp
°C
Dew
Point
°C
Rel
Hum
%
Delta-T
°C
Wind Press
QNH
hPa
Press
MSL
hPa
Rain since
9am
mm
Dir  Spd
km/h
Gust
km/h
Spd
kts
Gust
kts
18/11:30pm 5.7 2.1 4.8 94 0.4 SSW 13 17 7 9 - - 0.0
18/11:00pm 6.0 2.0 4.8 92 0.5 SSW 15 22 8 12 - - 0.0
18/10:30pm 6.0 2.3 4.5 90 0.6 SSW 13 19 7 10 - - 0.0
18/10:00pm 6.0 2.3 4.2 88 0.8 SSW 13 17 7 9 - - 0.0
18/09:30pm 6.4 2.3 4.1 85 1.0 SSW 15 20 8 11 - - 0.0
18/09:00pm 6.4 3.1 4.7 89 0.7 SW 11 17 6 9 - - 0.0
18/08:30pm 6.3 3.3 4.3 87 0.9 WSW 9 15 5 8 - - 0.0
18/08:00pm 6.9 4.0 4.6 85 1.0 SW 9 15 5 8 - - 0.0
18/07:30pm 7.5 4.7 5.0 84 1.1 SW 9 15 5 8 - - 0.0
18/07:00pm 7.3 4.4 4.8 84 1.1 SW 9 13 5 7 - - 0.0
18/06:30pm 8.1 4.5 5.2 82 1.3 SSW 13 17 7 9 - - 0.0
18/06:00pm 8.7 5.2 5.4 80 1.5 SSW 13 17 7 9 - - 0.0
18/05:30pm 9.5 5.7 5.7 77 1.7 SSW 15 20 8 11 - - 0.0
18/05:00pm 10.0 5.4 5.6 74 2.0 SSW 19 28 10 15 - - 0.0
18/04:30pm 10.8 6.2 5.8 71 2.3 SSW 19 28 10 15 - - 0.0
18/04:00pm 11.5 6.7 5.6 67 2.7 SSW 20 33 11 18 - - 0.0
18/03:30pm 11.8 6.7 5.9 67 2.8 SSW 22 33 12 18 - - 0.0
18/03:00pm 12.1 6.7 6.4 68 2.7 SSW 24 39 13 21 - - 0.0
18/02:30pm 12.3 6.8 6.1 66 2.9 S 24 37 13 20 - - 0.0
18/02:00pm 12.6 6.8 6.4 66 3.0 S 26 41 14 22 - - 0.0
18/01:30pm 12.1 7.4 6.2 67 2.8 S 20 33 11 18 - - 0.0
18/01:00pm 12.7 7.4 7.0 68 2.8 S 24 35 13 19 - - 0.0
18/12:30pm 12.9 8.4 6.9 67 2.9 S 20 35 11 19 - - 0.0
18/12:00pm 12.5 8.5 6.5 67 2.9 S 17 28 9 15 - - 0.0
18/11:30am 12.2 7.6 6.3 67 2.8 S 20 35 11 19 - - 0.0
18/11:00am 11.9 7.3 6.4 69 2.6 S 20 39 11 21 - - 0.0
18/10:30am 11.4 7.8 6.7 73 2.2 SSW 15 30 8 16 - - 0.0
18/10:00am 10.5 6.6 7.0 79 1.7 SSW 17 26 9 14 - - 0.0
18/09:30am 9.4 7.3 6.8 84 1.2 WSW 7 13 4 7 - - 0.0
18/09:00am 8.0 5.4 6.3 89 0.8 WSW 9 13 5 7 - - 10.6
18/08:30am 6.9 4.7 6.0 94 0.4 WSW 7 13 4 7 - - 10.6
18/08:00am 5.9 3.2 5.8 99 0.0 WSW 9 13 5 7 - - 10.6
18/07:30am 5.1 2.7 4.4 95 0.3 W 6 9 3 5 - - 10.6
18/07:00am 5.6 4.0 4.4 92 0.5 W 2 7 1 4 - - 10.6
18/06:30am 6.6 3.8 5.2 91 0.6 SW 9 13 5 7 - - 10.6
18/06:00am 7.2 4.5 5.8 91 0.6 SW 9 15 5 8 - - 10.6
18/05:30am 7.5 4.9 6.3 92 0.5 WSW 9 17 5 9 - - 10.6
18/05:00am 7.9 5.5 7.0 94 0.4 SW 9 17 5 9 - - 10.6
18/04:30am 7.8 4.9 6.7 93 0.5 WSW 11 17 6 9 - - 10.6
18/04:00am 8.2 5.7 6.7 90 0.7 WSW 9 15 5 8 - - 10.6
18/03:30am 8.3 6.3 6.9 91 0.7 W 7 15 4 8 - - 10.6
18/03:00am 8.6 6.2 6.9 89 0.8 WSW 9 15 5 8 - - 10.6
18/02:30am 8.9 6.9 7.0 88 0.9 WSW 7 15 4 8 - - 10.6
18/02:00am 9.0 5.9 7.3 89 0.8 SW 13 22 7 12 - - 10.6
18/01:30am 9.0 6.3 7.3 89 0.8 SW 11 17 6 9 - - 10.6
18/01:00am 8.9 6.6 7.5 91 0.7 SW 9 15 5 8 - - 10.6
18/12:30am 8.7 6.0 7.3 91 0.7 WSW 11 17 6 9 - - 10.6
18/12:00am 8.3 5.5 7.1 92 0.6 WSW 11 17 6 9 - - 10.6
 
Date/Time
EST
Temp
°C
App
Temp
°C
Dew
Point
°C
Rel
Hum
%
Delta-T
°C
Wind Press
QNH
hPa
Press
MSL
hPa
Rain since
9am
mm
Dir  Spd
km/h
Gust
km/h
Spd
kts
Gust
kts
17/11:30pm 8.5 5.4 7.4 93 0.5 WSW 13 20 7 11 - - 10.6
17/11:00pm 8.7 5.7 7.5 92 0.6 WSW 13 17 7 9 - - 10.6
17/10:30pm 8.6 6.6 7.2 91 0.7 W 7 15 4 8 - - 10.6
17/10:00pm 8.6 5.5 7.2 91 0.7 WSW 13 20 7 11 - - 10.6
17/09:30pm 8.6 6.2 7.1 90 0.7 WSW 9 15 5 8 - - 10.6
17/09:00pm 8.8 5.6 6.9 88 0.9 WSW 13 19 7 10 - - 10.4
17/08:30pm 8.9 6.1 6.9 87 0.9 WSW 11 19 6 10 - - 10.4
17/08:00pm 9.3 6.9 6.9 85 1.1 WSW 9 15 5 8 - - 10.4
17/07:30pm 9.7 6.9 7.1 84 1.2 SW 11 22 6 12 - - 10.4
17/07:00pm 9.7 7.3 7.1 84 1.2 SW 9 17 5 9 - - 10.4
17/06:30pm 10.0 6.6 7.6 85 1.2 SSW 15 24 8 13 - - 10.4
17/06:00pm 9.7 7.1 7.8 88 0.9 SW 11 17 6 9 - - 10.4
17/05:30pm 9.8 7.3 8.2 90 0.8 WSW 11 24 6 13 - - 10.4
17/05:00pm 10.2 7.5 8.8 91 0.7 SW 13 22 7 12 - - 10.4
17/04:30pm 10.1 7.1 9.2 94 0.4 SW 15 28 8 15 - - 10.4
17/04:00pm 9.8 6.4 9.0 95 0.4 SW 17 30 9 16 - - 10.2

Other Formats:

Comma delimited format used in spreadsheet applications
http://www.bom.gov.au/fwo/IDV60801/IDV60801.95833.axf

JavaScript Object Notation format (JSON) in row-major order
http://www.bom.gov.au/fwo/IDV60801/IDV60801.95833.json